createdAt,value
2022-11-07T00:01:41.350Z,99.90
2022-11-07T00:04:08.695Z,99.90
2022-11-07T00:06:37.630Z,99.90
2022-11-07T00:09:05.674Z,99.90
2022-11-07T00:11:33.065Z,99.90
2022-11-07T00:14:00.328Z,99.90
2022-11-07T00:16:28.918Z,99.90
2022-11-07T00:18:56.695Z,99.90
2022-11-07T00:21:24.122Z,99.90
2022-11-07T00:23:51.429Z,99.90
2022-11-07T00:26:18.703Z,99.90
2022-11-07T00:28:46.390Z,99.90
2022-11-07T00:31:14.589Z,99.90
2022-11-07T00:33:42.474Z,99.90
2022-11-07T00:36:15.940Z,99.90
2022-11-07T00:38:43.191Z,99.90
2022-11-07T00:41:10.629Z,99.90
2022-11-07T00:43:37.970Z,99.90
2022-11-07T00:46:07.365Z,99.90
2022-11-07T00:48:35.316Z,99.90
2022-11-07T00:51:11.578Z,99.90
2022-11-07T00:53:39.330Z,99.90
2022-11-07T00:56:08.765Z,99.90
2022-11-07T00:58:36.554Z,99.90
2022-11-07T01:01:13.052Z,99.90
2022-11-07T01:04:00.093Z,99.90
2022-11-07T01:06:28.442Z,99.90
2022-11-07T01:08:56.570Z,99.90
2022-11-07T01:11:30.488Z,99.90
2022-11-07T01:14:00.215Z,99.90
2022-11-07T01:16:28.828Z,99.90
2022-11-07T01:18:56.133Z,99.90
2022-11-07T01:21:23.788Z,99.90
2022-11-07T01:27:02.708Z,99.90
2022-11-07T01:29:29.944Z,99.90
2022-11-07T01:32:00.159Z,99.90
2022-11-07T01:34:27.538Z,99.90
2022-11-07T01:36:54.877Z,99.90
2022-11-07T01:39:22.117Z,99.90
2022-11-07T01:41:49.468Z,99.90
2022-11-07T01:44:16.783Z,99.90
2022-11-07T01:46:45.575Z,99.90
2022-11-07T01:49:28.833Z,99.90
2022-11-07T01:52:07.147Z,99.90
2022-11-07T01:54:44.402Z,99.90
2022-11-07T01:57:17.572Z,99.90
2022-11-07T01:59:45.132Z,99.90
2022-11-07T02:02:12.758Z,99.90
2022-11-07T02:04:40.217Z,99.90
2022-11-07T02:07:16.673Z,99.90
2022-11-07T02:12:51.789Z,99.90
2022-11-07T02:15:19.275Z,99.90
2022-11-07T02:17:46.627Z,99.90
2022-11-07T02:20:14.171Z,99.90
2022-11-07T02:22:58.985Z,99.90
2022-11-07T02:25:26.475Z,99.90
2022-11-07T02:28:00.021Z,99.90
2022-11-07T02:30:34.610Z,99.90
2022-11-07T02:33:02.785Z,99.90
2022-11-07T02:35:42.358Z,99.90
2022-11-07T02:38:23.531Z,99.90
2022-11-07T02:40:58.451Z,99.90
2022-11-07T02:43:31.673Z,99.90
2022-11-07T02:46:02.207Z,99.90
2022-11-07T02:48:41.289Z,99.90
2022-11-07T02:51:08.611Z,99.90
2022-11-07T02:53:36.045Z,99.90
2022-11-07T02:56:03.529Z,99.90
2022-11-07T02:58:30.857Z,99.90
2022-11-07T03:01:03.005Z,99.90
2022-11-07T03:03:31.272Z,99.90
2022-11-07T03:05:58.664Z,99.90
2022-11-07T03:08:25.889Z,99.90
2022-11-07T03:10:53.134Z,99.90
2022-11-07T03:13:20.435Z,99.90
2022-11-07T03:15:47.661Z,99.90
2022-11-07T03:18:14.893Z,99.90
2022-11-07T03:20:42.142Z,99.90
2022-11-07T03:23:09.524Z,99.90
2022-11-07T03:25:36.839Z,99.90
2022-11-07T03:28:11.930Z,99.90
2022-11-07T03:30:42.328Z,99.90
2022-11-07T03:33:09.886Z,99.90
2022-11-07T03:35:37.612Z,99.90
2022-11-07T03:38:04.886Z,99.90
2022-11-07T03:40:32.137Z,99.90
2022-11-07T03:42:59.384Z,99.90
2022-11-07T03:45:26.686Z,99.90
2022-11-07T03:47:54.082Z,99.90
2022-11-07T03:50:22.484Z,99.90
2022-11-07T03:53:10.286Z,99.90
2022-11-07T03:55:37.546Z,99.90
2022-11-07T03:58:04.802Z,99.90
2022-11-07T04:00:32.097Z,99.90
2022-11-07T04:02:59.636Z,99.90
2022-11-07T04:05:27.069Z,99.90
2022-11-07T04:07:54.314Z,99.90
2022-11-07T04:10:21.598Z,99.90
2022-11-07T04:13:10.673Z,99.90
2022-11-07T04:15:57.982Z,99.90
2022-11-07T04:18:25.257Z,99.90
2022-11-07T04:20:52.616Z,99.90
2022-11-07T04:23:28.621Z,99.90
2022-11-07T04:26:14.616Z,99.90
2022-11-07T04:28:42.051Z,99.90
2022-11-07T04:31:14.773Z,99.90
2022-11-07T04:33:42.102Z,99.90
2022-11-07T04:36:09.485Z,99.90
2022-11-07T04:38:36.818Z,99.90
2022-11-07T04:41:04.775Z,99.90
2022-11-07T04:43:32.087Z,99.90
2022-11-07T04:45:59.434Z,99.90
2022-11-07T04:48:26.707Z,99.90
2022-11-07T04:50:54.142Z,99.90
2022-11-07T04:53:21.550Z,99.90
2022-11-07T04:55:48.915Z,99.90
2022-11-07T04:58:16.300Z,99.90
2022-11-07T05:00:43.598Z,99.90
2022-11-07T05:03:12.749Z,99.90
2022-11-07T05:05:40.271Z,99.90
2022-11-07T05:08:08.479Z,99.90
2022-11-07T05:10:35.716Z,99.90
2022-11-07T05:13:02.917Z,99.90
2022-11-07T05:15:30.132Z,99.90
2022-11-07T05:17:57.360Z,99.90
2022-11-07T05:20:29.689Z,99.90
2022-11-07T05:23:12.504Z,99.90
2022-11-07T05:25:46.652Z,99.90
2022-11-07T05:28:16.670Z,99.90
2022-11-07T05:30:45.233Z,99.90
2022-11-07T05:33:16.096Z,99.90
2022-11-07T05:35:44.448Z,99.90
2022-11-07T05:38:12.282Z,99.90
2022-11-07T05:40:40.518Z,99.90
2022-11-07T05:43:10.338Z,99.90
2022-11-07T05:45:38.385Z,99.90
2022-11-07T05:48:08.233Z,99.90
2022-11-07T05:50:36.508Z,99.90
2022-11-07T05:53:05.181Z,99.90
2022-11-07T05:58:14.418Z,99.90
2022-11-07T06:00:42.150Z,99.90
2022-11-07T06:03:10.144Z,99.90
2022-11-07T06:05:39.107Z,99.90
2022-11-07T06:08:07.979Z,99.90
2022-11-07T06:10:37.220Z,99.90
2022-11-07T06:13:06.662Z,99.90
2022-11-07T06:15:36.401Z,99.90
2022-11-07T06:18:05.285Z,99.90
2022-11-07T06:20:34.482Z,99.90
2022-11-07T06:23:07.976Z,99.90
2022-11-07T06:25:36.162Z,99.90
2022-11-07T06:28:06.593Z,99.90
2022-11-07T06:30:34.730Z,99.90
2022-11-07T06:33:03.737Z,99.90
2022-11-07T06:35:31.666Z,99.90
2022-11-07T06:38:03.985Z,99.90
2022-11-07T06:40:31.930Z,99.90
2022-11-07T06:43:11.309Z,99.90
2022-11-07T06:45:39.238Z,99.90
2022-11-07T06:48:07.189Z,99.90
2022-11-07T06:50:35.101Z,99.90
2022-11-07T06:53:13.590Z,99.90
2022-11-07T06:55:47.357Z,99.90
2022-11-07T06:58:20.896Z,99.90
2022-11-07T07:00:49.018Z,99.90
2022-11-07T07:03:17.356Z,99.90
2022-11-07T07:05:44.818Z,99.90
2022-11-07T07:08:13.063Z,99.90
2022-11-07T07:10:45.122Z,99.90
2022-11-07T07:13:14.480Z,99.90
2022-11-07T07:15:51.931Z,99.90
2022-11-07T07:18:45.143Z,99.90
2022-11-07T07:21:14.422Z,99.90
2022-11-07T07:23:42.367Z,99.90
2022-11-07T07:26:15.211Z,99.90
2022-11-07T07:28:43.033Z,99.90
2022-11-07T07:31:14.700Z,99.90
2022-11-07T07:33:43.269Z,99.90
2022-11-07T07:36:15.259Z,99.90
2022-11-07T07:38:45.163Z,99.90
2022-11-07T07:41:12.430Z,99.90
2022-11-07T07:43:39.684Z,99.90
2022-11-07T07:46:08.869Z,99.90
2022-11-07T07:48:36.728Z,99.90
2022-11-07T07:51:04.081Z,99.90
2022-11-07T07:53:31.362Z,99.90
2022-11-07T07:55:59.580Z,99.90
2022-11-07T07:58:27.565Z,99.90
2022-11-07T08:00:58.582Z,99.90
2022-11-07T08:03:29.391Z,99.90
2022-11-07T08:06:02.570Z,99.90
2022-11-07T08:08:35.289Z,99.90
2022-11-07T08:11:07.590Z,99.90
2022-11-07T08:13:36.039Z,99.90
2022-11-07T08:16:05.513Z,99.90
2022-11-07T08:18:32.967Z,99.90
2022-11-07T08:21:00.242Z,99.90
2022-11-07T08:23:27.564Z,99.90
2022-11-07T08:25:57.214Z,99.90
2022-11-07T08:28:27.203Z,99.90
2022-11-07T08:31:05.317Z,99.90
2022-11-07T08:33:33.397Z,99.90
2022-11-07T08:36:02.638Z,99.90
2022-11-07T08:38:31.449Z,99.90
2022-11-07T08:40:59.229Z,99.90
2022-11-07T08:43:27.322Z,99.90
2022-11-07T08:45:55.775Z,99.90
2022-11-07T08:48:23.592Z,99.90
2022-11-07T08:50:56.327Z,99.90
2022-11-07T08:53:24.770Z,99.90
2022-11-07T08:56:01.880Z,99.90
2022-11-07T08:58:30.348Z,99.90
2022-11-07T09:00:58.308Z,99.90
2022-11-07T09:06:14.210Z,99.90
2022-11-07T09:08:41.556Z,99.90
2022-11-07T09:11:09.026Z,99.90
2022-11-07T09:13:37.199Z,99.90
2022-11-07T09:16:05.364Z,99.90
2022-11-07T09:18:33.722Z,99.60
2022-11-07T09:21:01.018Z,99.00
2022-11-07T09:23:28.300Z,99.20
2022-11-07T09:25:58.594Z,99.00
2022-11-07T09:28:25.848Z,98.80
2022-11-07T09:30:54.442Z,98.20
2022-11-07T09:33:22.450Z,98.10
2022-11-07T09:35:50.366Z,98.20
2022-11-07T09:38:18.002Z,98.40
2022-11-07T09:41:08.705Z,96.60
2022-11-07T09:43:47.982Z,96.10
2022-11-07T09:46:36.546Z,96.60
2022-11-07T09:49:03.765Z,96.70
2022-11-07T09:51:35.481Z,97.00
2022-11-07T09:54:12.461Z,97.20
2022-11-07T09:56:42.415Z,96.90
2022-11-07T09:59:35.114Z,96.80
2022-11-07T10:02:11.786Z,96.30
2022-11-07T10:04:39.212Z,97.00
2022-11-07T10:07:31.932Z,97.10
2022-11-07T10:10:23.114Z,97.10
2022-11-07T10:13:11.563Z,97.10
2022-11-07T10:15:54.530Z,96.90
2022-11-07T10:18:34.575Z,96.60
2022-11-07T10:21:39.205Z,96.40
2022-11-07T10:24:38.139Z,96.80
2022-11-07T10:27:10.549Z,96.90
2022-11-07T10:29:50.958Z,97.40
2022-11-07T10:32:35.655Z,97.90
2022-11-07T10:35:26.726Z,98.20
2022-11-07T10:37:56.279Z,98.00
2022-11-07T10:40:28.137Z,97.40
2022-11-07T10:42:56.548Z,97.60
2022-11-07T10:45:25.621Z,97.70
2022-11-07T10:48:02.822Z,97.50
2022-11-07T10:50:30.757Z,97.30
2022-11-07T10:53:01.002Z,97.50
2022-11-07T10:55:41.740Z,98.40
2022-11-07T10:58:28.628Z,97.90
2022-11-07T11:01:10.120Z,98.50
2022-11-07T11:03:44.746Z,98.40
2022-11-07T11:06:18.589Z,98.20
2022-11-07T11:08:47.454Z,98.30
2022-11-07T11:11:19.821Z,97.90
2022-11-07T11:13:48.383Z,98.30
2022-11-07T11:16:15.566Z,98.00
2022-11-07T11:18:53.912Z,98.20
2022-11-07T11:21:21.839Z,98.20
2022-11-07T11:23:49.771Z,98.40
2022-11-07T11:26:32.387Z,98.30
2022-11-07T11:29:21.510Z,98.20
2022-11-07T11:31:55.403Z,98.10
2022-11-07T11:35:01.232Z,98.10
2022-11-07T11:37:28.619Z,98.00
2022-11-07T11:39:59.020Z,98.80
2022-11-07T11:42:49.835Z,98.60
2022-11-07T11:45:31.094Z,99.00
2022-11-07T11:48:15.026Z,99.00
2022-11-07T11:50:50.012Z,99.20
2022-11-07T11:53:23.011Z,99.20
2022-11-07T11:56:08.093Z,99.50
2022-11-07T11:58:53.781Z,99.60
2022-11-07T12:01:49.298Z,99.90
2022-11-07T12:04:16.562Z,99.90
2022-11-07T12:06:47.730Z,99.40
2022-11-07T12:09:46.893Z,99.40
2022-11-07T12:12:17.000Z,99.40
2022-11-07T12:15:13.253Z,99.40
2022-11-07T12:18:05.065Z,99.20
2022-11-07T12:20:56.623Z,99.20
2022-11-07T12:24:06.048Z,99.00
2022-11-07T12:26:50.873Z,98.80
2022-11-07T12:29:23.815Z,98.90
2022-11-07T12:32:31.999Z,99.40
2022-11-07T12:35:10.291Z,99.70
2022-11-07T12:38:05.032Z,99.90
2022-11-07T12:40:44.381Z,99.90
2022-11-07T12:43:17.603Z,99.90
2022-11-07T12:46:07.214Z,99.80
2022-11-07T12:48:46.638Z,99.90
2022-11-07T12:51:39.090Z,99.90
2022-11-07T12:54:27.264Z,99.90
2022-11-07T12:56:57.502Z,99.90
2022-11-07T12:59:29.899Z,99.90
2022-11-07T13:02:06.349Z,99.90
2022-11-07T13:04:52.071Z,99.50
2022-11-07T13:07:26.747Z,99.50
2022-11-07T13:10:09.532Z,99.60
2022-11-07T13:12:44.359Z,99.50
2022-11-07T13:15:13.947Z,99.50
2022-11-07T13:17:44.267Z,99.50
2022-11-07T13:20:29.373Z,99.40
2022-11-07T13:23:01.370Z,99.20
2022-11-07T13:25:33.477Z,99.20
2022-11-07T13:28:06.694Z,99.50
2022-11-07T13:30:40.312Z,99.60
2022-11-07T13:33:37.211Z,99.40
2022-11-07T13:36:23.117Z,99.40
2022-11-07T13:38:54.738Z,99.40
2022-11-07T13:41:24.145Z,99.30
2022-11-07T13:44:03.492Z,99.10
2022-11-07T13:46:49.359Z,98.90
2022-11-07T13:49:44.590Z,99.00
2022-11-07T13:52:29.662Z,99.10
2022-11-07T13:55:09.808Z,98.60
2022-11-07T13:57:39.215Z,98.60
2022-11-07T14:00:11.051Z,98.70
2022-11-07T14:02:57.533Z,98.30
2022-11-07T14:05:35.028Z,98.60
2022-11-07T14:08:32.436Z,98.70
2022-11-07T14:10:59.874Z,98.70
2022-11-07T14:13:40.903Z,98.80
2022-11-07T14:16:25.063Z,98.40
2022-11-07T14:19:03.879Z,99.10
2022-11-07T14:21:37.169Z,98.80
2022-11-07T14:24:26.340Z,99.30
2022-11-07T14:27:02.930Z,99.60
2022-11-07T14:29:30.759Z,99.60
2022-11-07T14:32:00.977Z,99.50
2022-11-07T14:34:28.784Z,99.60
2022-11-07T14:37:01.569Z,99.10
2022-11-07T14:39:32.217Z,98.90
2022-11-07T14:42:02.872Z,98.60
2022-11-07T14:44:54.584Z,98.40
2022-11-07T14:47:29.301Z,98.60
2022-11-07T14:49:57.771Z,98.80
2022-11-07T14:52:29.298Z,98.90
2022-11-07T14:55:14.118Z,98.70
2022-11-07T14:57:41.857Z,99.00
2022-11-07T15:00:15.725Z,99.30
2022-11-07T15:02:45.543Z,99.40
2022-11-07T15:05:26.881Z,99.70
2022-11-07T15:07:55.109Z,99.90
2022-11-07T15:10:34.275Z,99.90
2022-11-07T15:13:05.067Z,99.70
2022-11-07T15:15:36.996Z,99.90
2022-11-07T15:18:07.019Z,99.90
2022-11-07T15:20:37.223Z,99.90
2022-11-07T15:23:13.308Z,99.90
2022-11-07T15:25:51.187Z,99.90
2022-11-07T15:28:21.144Z,99.90
2022-11-07T15:30:50.098Z,99.90
2022-11-07T15:33:18.688Z,99.90
2022-11-07T15:35:56.878Z,99.90
2022-11-07T15:38:27.707Z,99.90
2022-11-07T15:40:56.132Z,99.90
2022-11-07T15:43:23.606Z,99.90
2022-11-07T15:45:52.547Z,99.90
2022-11-07T15:48:22.817Z,99.90
2022-11-07T15:50:50.288Z,99.90
2022-11-07T15:53:26.132Z,99.90
2022-11-07T15:55:58.721Z,99.90
2022-11-07T15:58:28.638Z,99.90
2022-11-07T16:00:57.133Z,99.90
2022-11-07T16:03:26.006Z,99.90
2022-11-07T16:05:55.726Z,99.90
2022-11-07T16:08:24.549Z,99.90
2022-11-07T16:10:58.503Z,99.90
2022-11-07T16:13:25.730Z,99.90
2022-11-07T16:16:05.787Z,99.90
2022-11-07T16:18:43.905Z,99.90
2022-11-07T16:21:11.270Z,99.90
2022-11-07T16:23:39.655Z,99.90
2022-11-07T16:26:07.086Z,99.90
2022-11-07T16:28:35.664Z,99.90
2022-11-07T16:31:03.097Z,99.90
2022-11-07T16:33:31.292Z,99.90
2022-11-07T16:36:00.895Z,99.90
2022-11-07T16:38:34.983Z,99.90
2022-11-07T16:41:03.212Z,99.90
2022-11-07T16:43:35.088Z,99.90
2022-11-07T16:46:02.792Z,99.90
2022-11-07T16:48:32.245Z,99.90
2022-11-07T16:51:03.453Z,99.90
2022-11-07T16:53:30.990Z,99.90
2022-11-07T16:56:03.011Z,99.90
2022-11-07T16:58:33.494Z,99.90
2022-11-07T17:01:08.181Z,99.90
2022-11-07T17:03:36.618Z,99.90
2022-11-07T17:06:05.298Z,99.90
2022-11-07T17:08:41.865Z,99.90
2022-11-07T17:11:13.642Z,99.90
2022-11-07T17:13:41.254Z,99.90
2022-11-07T17:16:21.115Z,99.90
2022-11-07T17:18:49.306Z,99.90
2022-11-07T17:21:31.957Z,99.90
2022-11-07T17:24:00.945Z,99.90
2022-11-07T17:26:31.128Z,99.90
2022-11-07T17:29:01.091Z,99.90
2022-11-07T17:31:28.567Z,99.90
2022-11-07T17:33:55.978Z,99.90
2022-11-07T17:36:40.294Z,99.90
2022-11-07T17:39:11.745Z,99.90
2022-11-07T17:41:40.956Z,99.90
2022-11-07T17:44:08.886Z,99.90
2022-11-07T17:46:39.468Z,99.90
2022-11-07T17:49:07.860Z,99.90
2022-11-07T17:51:35.992Z,99.90
2022-11-07T17:54:04.415Z,99.90
2022-11-07T17:56:33.253Z,99.90
2022-11-07T17:59:05.006Z,99.90
2022-11-07T18:01:35.400Z,99.90
2022-11-07T18:04:04.397Z,99.90
2022-11-07T18:06:35.462Z,99.90
2022-11-07T18:09:03.929Z,99.90
2022-11-07T18:11:31.813Z,99.90
2022-11-07T18:14:00.100Z,99.90
2022-11-07T18:16:32.656Z,99.90
2022-11-07T18:19:01.373Z,99.90
2022-11-07T18:21:29.351Z,99.90
2022-11-07T18:23:57.476Z,99.90
2022-11-07T18:26:31.204Z,99.90
2022-11-07T18:29:04.450Z,99.90
2022-11-07T18:31:31.936Z,99.90
2022-11-07T18:34:01.550Z,99.90
2022-11-07T18:36:30.875Z,99.90
2022-11-07T18:39:03.433Z,99.90
2022-11-07T18:41:30.923Z,99.90
2022-11-07T18:44:04.224Z,99.90
2022-11-07T18:46:32.660Z,99.90
2022-11-07T18:49:00.607Z,99.90
2022-11-07T18:51:28.288Z,99.90
2022-11-07T18:53:55.649Z,99.90
2022-11-07T18:56:22.865Z,99.90
2022-11-07T18:58:50.231Z,99.90
2022-11-07T19:01:22.085Z,99.90
2022-11-07T19:03:49.501Z,99.90
2022-11-07T19:06:18.899Z,99.90
2022-11-07T19:08:47.690Z,99.90
2022-11-07T19:11:21.703Z,99.90
2022-11-07T19:13:49.009Z,99.90
2022-11-07T19:16:18.363Z,99.90
2022-11-07T19:18:49.473Z,99.90
2022-11-07T19:21:20.569Z,99.90
2022-11-07T19:23:48.945Z,99.90
2022-11-07T19:26:18.938Z,99.90
2022-11-07T19:28:47.042Z,99.90
2022-11-07T19:31:14.746Z,99.90
2022-11-07T19:33:42.803Z,99.90
2022-11-07T19:36:15.662Z,99.90
2022-11-07T19:38:44.148Z,99.90
2022-11-07T19:41:13.756Z,99.90
2022-11-07T19:43:42.607Z,99.90
2022-11-07T19:46:13.463Z,99.90
2022-11-07T19:48:40.819Z,99.90
2022-11-07T19:51:11.336Z,99.90
2022-11-07T19:53:38.603Z,99.90
2022-11-07T19:56:08.654Z,99.90
2022-11-07T19:58:40.386Z,99.90
2022-11-07T20:01:20.395Z,99.90
2022-11-07T20:03:50.050Z,99.90
2022-11-07T20:06:20.246Z,99.90
2022-11-07T20:08:48.426Z,99.90
2022-11-07T20:11:18.649Z,99.90
2022-11-07T20:13:46.406Z,99.90
2022-11-07T20:16:14.292Z,99.90
2022-11-07T20:18:42.093Z,99.90
2022-11-07T20:21:13.166Z,99.90
2022-11-07T20:23:42.334Z,99.90
2022-11-07T20:26:13.055Z,99.90
2022-11-07T20:28:40.786Z,99.90
2022-11-07T20:31:09.894Z,99.90
2022-11-07T20:33:37.288Z,99.90
2022-11-07T20:36:07.743Z,99.90
2022-11-07T20:38:35.952Z,99.90
2022-11-07T20:41:04.508Z,99.90
2022-11-07T20:43:33.752Z,99.90
2022-11-07T20:46:13.521Z,99.90
2022-11-07T20:49:17.886Z,99.90
2022-11-07T20:51:47.725Z,99.90
2022-11-07T20:54:16.363Z,99.90
2022-11-07T20:56:44.067Z,99.90
2022-11-07T20:59:11.695Z,99.90
2022-11-07T21:01:41.209Z,99.90
2022-11-07T21:04:11.290Z,99.90
2022-11-07T21:06:38.831Z,99.90
2022-11-07T21:09:06.662Z,99.90
2022-11-07T21:11:34.371Z,99.90
2022-11-07T21:14:02.269Z,99.90
2022-11-07T21:16:30.084Z,99.90
2022-11-07T21:19:22.791Z,99.90
2022-11-07T21:21:50.327Z,99.90
2022-11-07T21:24:20.442Z,99.90
2022-11-07T21:26:47.852Z,99.90
2022-11-07T21:29:15.675Z,99.90
2022-11-07T21:31:43.001Z,99.90
2022-11-07T21:34:11.621Z,99.90
2022-11-07T21:36:38.942Z,99.90
2022-11-07T21:39:07.574Z,99.90
2022-11-07T21:41:35.687Z,99.90
2022-11-07T21:44:02.941Z,99.90
2022-11-07T21:46:34.222Z,99.90
2022-11-07T21:49:01.946Z,99.90
2022-11-07T22:06:43.666Z,99.90
2022-11-07T22:09:14.795Z,99.90
2022-11-07T22:11:50.085Z,99.90
2022-11-07T22:14:19.902Z,99.90
2022-11-07T22:16:48.418Z,99.90
2022-11-07T22:19:17.016Z,99.90
2022-11-07T22:21:49.700Z,99.90
2022-11-07T22:24:17.046Z,99.90
2022-11-07T22:26:44.605Z,99.90
2022-11-07T22:29:12.927Z,99.90
2022-11-07T22:31:40.229Z,99.90
2022-11-07T22:34:07.490Z,99.90
2022-11-07T22:36:34.835Z,99.90
2022-11-07T22:39:02.296Z,99.90
2022-11-07T22:41:30.161Z,99.90
2022-11-07T22:44:00.163Z,99.90
2022-11-07T22:46:52.897Z,99.90
2022-11-07T22:49:20.217Z,99.90
2022-11-07T22:51:47.855Z,99.90
2022-11-07T22:54:15.573Z,99.90
2022-11-07T22:56:42.874Z,99.90
2022-11-07T22:59:11.373Z,99.90
2022-11-07T23:01:41.694Z,99.90
2022-11-07T23:04:22.663Z,99.90
2022-11-07T23:06:49.976Z,99.90
2022-11-07T23:09:17.371Z,99.90
2022-11-07T23:11:47.137Z,99.90
2022-11-07T23:14:18.286Z,99.90
2022-11-07T23:16:48.420Z,99.90
2022-11-07T23:19:17.424Z,99.90
2022-11-07T23:22:06.618Z,99.90
2022-11-07T23:24:34.844Z,99.90
2022-11-07T23:27:02.335Z,99.90
2022-11-07T23:29:29.658Z,99.90
2022-11-07T23:31:57.265Z,99.90
2022-11-07T23:34:25.877Z,99.90
2022-11-07T23:36:56.153Z,99.90
2022-11-07T23:39:25.836Z,99.90
2022-11-07T23:41:53.141Z,99.90
2022-11-07T23:44:20.541Z,99.90
2022-11-07T23:47:16.479Z,99.90
2022-11-07T23:50:02.863Z,99.90
2022-11-07T23:52:40.131Z,99.90
2022-11-07T23:55:26.530Z,99.90
2022-11-07T23:58:12.169Z,99.90
